Time;durP1;ratioP1;P1;durP2;ratioP2;P2;SDS_P1;SDS_P2;PMS_P1;PMS_P2;Temp;Humidity;BMP_temperature;BMP_pressure;BME280_temperature;BME280_humidity;BME280_pressure;Samples;Min_cycle;Max_cycle;Signal;HPM_P1;HPM_P2
2022/09/24 00:01:14;;;;;;;4.88;1.10;;;19.30;99.90;;;;;;5033173;28;20277;-75
2022/09/24 00:03:46;;;;;;;5.70;1.17;;;19.10;99.90;;;;;;5033669;28;20200;-76
2022/09/24 00:06:17;;;;;;;5.25;1.20;;;18.90;99.90;;;;;;5032911;28;20190;-69
2022/09/24 00:08:53;;;;;;;3.60;0.98;;;18.70;99.90;;;;;;5031798;28;20198;-72
2022/09/24 00:11:26;;;;;;;2.50;0.70;;;18.50;99.90;;;;;;5032342;28;20218;-74
2022/09/24 00:13:58;;;;;;;2.15;0.90;;;18.40;99.90;;;;;;5033023;28;20542;-74
2022/09/24 00:16:32;;;;;;;3.17;0.85;;;18.30;99.90;;;;;;5034091;28;20359;-72
2022/09/24 00:19:05;;;;;;;1.83;0.80;;;18.40;99.90;;;;;;5026143;28;20666;-76
2022/09/24 00:21:40;;;;;;;2.25;0.90;;;18.70;99.90;;;;;;5040521;28;20249;-76
2022/09/24 00:26:48;;;;;;;4.43;0.68;;;19.00;99.90;;;;;;5030943;28;20193;-72
2022/09/24 00:27:04;;;;;;;4.10;0.60;;;19.20;99.90;;;;;;5027905;28;20194;-68
2022/09/24 00:29:36;;;;;;;1.17;0.60;;;19.30;99.90;;;;;;5050692;28;20198;-70
2022/09/24 00:32:09;;;;;;;3.63;0.80;;;19.40;99.90;;;;;;5033249;28;20226;-76
2022/09/24 00:34:39;;;;;;;1.52;0.50;;;19.60;99.90;;;;;;5032595;28;20721;-76
2022/09/24 00:37:10;;;;;;;6.32;0.80;;;19.60;99.90;;;;;;5031003;28;20242;-74
2022/09/24 00:39:41;;;;;;;1.38;0.63;;;19.50;99.90;;;;;;5030839;28;20658;-71
2022/09/24 00:42:12;;;;;;;0.85;0.60;;;19.50;99.90;;;;;;5031520;28;20206;-72
2022/09/24 00:44:56;;;;;;;4.32;0.88;;;19.60;99.90;;;;;;5026135;28;20659;-69
2022/09/24 00:47:40;;;;;;;1.80;0.70;;;19.80;99.90;;;;;;5027203;28;20209;-68
2022/09/24 00:50:30;;;;;;;2.47;0.50;;;19.90;99.90;;;;;;5028740;28;20204;-68
2022/09/24 00:53:04;;;;;;;1.23;0.60;;;20.00;99.90;;;;;;5025745;28;20203;-69
2022/09/24 00:55:37;;;;;;;1.65;0.50;;;20.20;99.90;;;;;;5028775;28;20202;-69
2022/09/24 00:58:10;;;;;;;2.88;0.80;;;20.10;99.90;;;;;;5034580;28;20205;-68
2022/09/24 01:00:43;;;;;;;4.00;0.85;;;20.10;99.90;;;;;;5023216;28;20336;-70
2022/09/24 01:03:20;;;;;;;1.17;0.60;;;20.10;99.90;;;;;;5026035;28;20220;-69
2022/09/24 01:05:51;;;;;;;1.75;0.80;;;20.10;99.90;;;;;;5030191;28;20194;-68
2022/09/24 01:08:22;;;;;;;3.42;0.70;;;20.10;99.90;;;;;;5033270;28;20191;-67
2022/09/24 01:11:16;;;;;;;4.05;0.60;;;20.10;99.90;;;;;;5035881;28;20220;-67
2022/09/24 01:14:25;;;;;;;1.95;0.60;;;19.70;99.90;;;;;;5035403;28;20198;-73
2022/09/24 01:17:02;;;;;;;3.20;0.55;;;19.70;99.90;;;;;;5037571;28;20228;-78
2022/09/24 01:20:13;;;;;;;1.70;0.50;;;20.00;99.90;;;;;;5035504;28;20642;-69
2022/09/24 01:23:00;;;;;;;2.60;0.60;;;20.20;99.90;;;;;;5037100;28;20181;-75
2022/09/24 01:25:37;;;;;;;2.92;0.50;;;20.20;99.90;;;;;;5026261;28;20201;-77
2022/09/24 01:28:26;;;;;;;0.55;0.30;;;20.20;99.90;;;;;;5035265;28;20190;-71
2022/09/24 01:31:02;;;;;;;0.80;0.40;;;20.10;99.90;;;;;;5015763;28;20694;-69
2022/09/24 01:33:35;;;;;;;1.63;0.40;;;20.10;99.90;;;;;;5031364;28;20559;-68
2022/09/24 01:36:08;;;;;;;1.13;0.30;;;20.20;99.90;;;;;;5015635;28;20191;-68
2022/09/24 01:38:43;;;;;;;1.27;0.50;;;20.40;99.90;;;;;;5023853;28;20198;-72
2022/09/24 01:41:16;;;;;;;0.88;0.30;;;20.60;99.90;;;;;;5035487;28;20653;-73
2022/09/24 01:43:47;;;;;;;2.38;0.32;;;20.60;99.90;;;;;;5036972;28;20617;-69
2022/09/24 01:46:21;;;;;;;0.30;0.30;;;20.30;99.90;;;;;;5035109;28;20204;-70
2022/09/24 01:48:52;;;;;;;1.23;0.40;;;20.00;99.90;;;;;;5034960;28;20190;-69
2022/09/24 01:51:28;;;;;;;0.68;0.40;;;19.90;99.90;;;;;;5035058;28;20218;-75
2022/09/24 01:54:06;;;;;;;1.55;0.30;;;19.90;99.90;;;;;;5035446;28;20273;-69
2022/09/24 01:56:43;;;;;;;1.33;0.20;;;19.70;99.90;;;;;;5035550;28;20281;-70
2022/09/24 01:59:18;;;;;;;1.25;0.40;;;19.50;99.90;;;;;;5033553;28;20281;-70
2022/09/24 02:02:08;;;;;;;1.30;0.30;;;19.40;99.90;;;;;;5027648;28;20194;-69
2022/09/24 02:04:45;;;;;;;2.95;0.80;;;19.30;99.90;;;;;;5033939;28;20206;-71
2022/09/24 02:07:20;;;;;;;1.58;0.47;;;19.10;99.90;;;;;;5034167;28;20231;-69
2022/09/24 02:09:52;;;;;;;1.48;0.40;;;19.00;99.90;;;;;;5033819;28;20194;-68
2022/09/24 02:12:28;;;;;;;2.55;0.60;;;18.70;99.90;;;;;;5034261;28;20229;-69
2022/09/24 02:15:03;;;;;;;0.45;0.30;;;18.70;99.90;;;;;;5035146;28;20501;-68
2022/09/24 02:17:39;;;;;;;0.60;0.30;;;18.50;99.90;;;;;;5033843;28;20680;-67
2022/09/24 02:20:14;;;;;;;0.82;0.40;;;18.40;99.90;;;;;;5030495;28;20236;-76
2022/09/24 02:22:47;;;;;;;1.73;0.50;;;18.30;99.90;;;;;;5034120;28;20560;-72
2022/09/24 02:25:20;;;;;;;1.17;0.47;;;18.30;99.90;;;;;;5034634;28;20190;-68
2022/09/24 02:27:51;;;;;;;2.15;0.52;;;18.30;99.90;;;;;;5034643;28;20187;-69
2022/09/24 02:30:22;;;;;;;1.85;0.70;;;18.20;99.90;;;;;;5035009;28;20567;-75
2022/09/24 02:32:56;;;;;;;2.30;0.60;;;18.10;99.90;;;;;;5033864;28;20225;-69
2022/09/24 02:35:26;;;;;;;1.23;0.50;;;18.10;99.90;;;;;;5034197;28;20204;-68
2022/09/24 02:37:56;;;;;;;2.60;0.50;;;18.00;99.90;;;;;;5028629;28;20284;-76
2022/09/24 02:40:27;;;;;;;2.00;0.55;;;18.00;99.90;;;;;;5034315;28;20537;-75
2022/09/24 02:42:58;;;;;;;2.50;0.60;;;18.00;99.90;;;;;;5034369;28;20552;-72
2022/09/24 02:45:28;;;;;;;0.75;0.40;;;18.00;99.90;;;;;;5034137;28;20197;-73
2022/09/24 02:48:01;;;;;;;2.63;0.50;;;18.00;99.90;;;;;;5043560;28;20200;-74
2022/09/24 02:50:32;;;;;;;2.28;0.60;;;17.90;99.90;;;;;;5042988;28;20279;-69
2022/09/24 02:53:03;;;;;;;1.70;0.50;;;17.90;99.90;;;;;;5054001;28;20193;-68
2022/09/24 02:55:34;;;;;;;1.60;0.50;;;17.90;99.90;;;;;;5032212;28;20202;-72
2022/09/24 02:58:04;;;;;;;8.55;2.10;;;17.90;99.90;;;;;;5034090;28;20190;-69
2022/09/24 03:00:35;;;;;;;1.73;0.60;;;18.00;99.90;;;;;;5039467;28;20193;-75
2022/09/24 03:03:08;;;;;;;2.05;0.65;;;17.90;99.90;;;;;;5033428;28;20190;-74
2022/09/24 03:05:38;;;;;;;1.15;0.60;;;17.90;99.90;;;;;;5033397;28;20204;-68
2022/09/24 03:08:09;;;;;;;1.67;0.70;;;17.90;99.90;;;;;;5033587;28;20198;-68
2022/09/24 03:10:40;;;;;;;1.83;0.50;;;17.90;99.90;;;;;;5034710;28;20193;-72
2022/09/24 03:13:10;;;;;;;1.55;0.50;;;17.80;99.90;;;;;;5031532;28;20203;-71
2022/09/24 03:15:41;;;;;;;2.65;0.52;;;17.70;99.90;;;;;;5033580;28;20195;-70
2022/09/24 03:18:14;;;;;;;2.47;0.50;;;17.60;99.90;;;;;;5037258;28;20633;-75
2022/09/24 03:20:45;;;;;;;1.08;0.50;;;17.60;99.90;;;;;;5033582;28;20209;-68
2022/09/24 03:23:15;;;;;;;3.38;0.60;;;17.50;99.90;;;;;;5033523;28;20190;-70
2022/09/24 03:25:46;;;;;;;2.28;0.70;;;17.50;99.90;;;;;;5033459;28;20212;-70
2022/09/24 03:28:17;;;;;;;1.90;0.63;;;17.40;99.90;;;;;;5031501;28;20673;-69
2022/09/24 03:31:03;;;;;;;2.33;0.70;;;17.40;99.90;;;;;;5031307;28;20563;-70
2022/09/24 03:33:37;;;;;;;1.90;0.50;;;17.40;99.90;;;;;;5032746;28;20272;-73
2022/09/24 03:36:10;;;;;;;0.82;0.60;;;17.50;99.90;;;;;;5033220;28;20191;-67
2022/09/24 03:38:42;;;;;;;3.38;0.70;;;17.50;99.90;;;;;;5032341;28;20187;-76
2022/09/24 03:41:13;;;;;;;5.60;0.88;;;17.50;99.90;;;;;;5026291;28;20202;-67
2022/09/24 03:43:44;;;;;;;3.15;0.80;;;17.60;99.90;;;;;;5033218;28;20190;-68
2022/09/24 03:46:16;;;;;;;3.45;0.73;;;17.50;99.90;;;;;;5032271;28;20679;-68
2022/09/24 03:48:49;;;;;;;3.70;0.82;;;17.50;99.90;;;;;;5021757;28;20194;-68
2022/09/24 03:51:21;;;;;;;2.78;0.90;;;17.60;99.90;;;;;;5031646;28;20210;-68
2022/09/24 03:53:52;;;;;;;4.20;0.88;;;17.50;99.90;;;;;;5029947;28;20198;-67
2022/09/24 03:56:23;;;;;;;3.38;0.90;;;17.50;99.90;;;;;;5029066;28;20202;-67
2022/09/24 03:58:53;;;;;;;2.83;0.90;;;17.40;99.90;;;;;;5048799;28;20196;-69
2022/09/24 04:01:24;;;;;;;2.75;0.80;;;17.40;99.90;;;;;;5037548;28;20205;-76
2022/09/24 04:03:57;;;;;;;1.77;0.68;;;17.30;99.90;;;;;;5031980;28;20548;-75
2022/09/24 04:06:27;;;;;;;2.55;0.90;;;17.30;99.90;;;;;;5029755;28;20564;-75
2022/09/24 04:08:59;;;;;;;3.63;0.77;;;17.10;99.90;;;;;;5029544;28;20194;-77
2022/09/24 04:11:30;;;;;;;2.22;0.80;;;17.00;99.90;;;;;;5032597;28;20242;-76
2022/09/24 04:14:00;;;;;;;5.03;1.10;;;16.90;99.90;;;;;;5035356;28;20198;-75
2022/09/24 04:16:31;;;;;;;4.05;1.23;;;16.70;99.90;;;;;;5026647;28;20248;-75
2022/09/24 04:19:04;;;;;;;4.10;0.68;;;16.60;99.90;;;;;;5037179;28;20193;-76
2022/09/24 04:21:34;;;;;;;3.40;1.00;;;16.50;99.90;;;;;;5032048;28;20204;-74
2022/09/24 04:24:05;;;;;;;2.88;0.90;;;16.40;99.90;;;;;;5030471;28;20199;-78
2022/09/24 04:26:36;;;;;;;3.70;0.93;;;16.40;99.90;;;;;;5033357;28;20194;-77
2022/09/24 04:29:07;;;;;;;2.58;0.95;;;16.40;99.90;;;;;;5037465;28;20407;-73
2022/09/24 04:31:38;;;;;;;2.17;0.75;;;16.50;99.90;;;;;;5033662;28;20221;-77
2022/09/24 04:34:11;;;;;;;6.35;0.80;;;16.60;99.90;;;;;;5033251;28;20548;-75
2022/09/24 04:36:42;;;;;;;4.07;0.90;;;16.60;99.90;;;;;;5032023;28;20701;-78
2022/09/24 04:39:14;;;;;;;2.90;0.85;;;16.60;99.90;;;;;;5037811;28;20194;-77
2022/09/24 04:41:46;;;;;;;1.95;0.73;;;16.70;99.90;;;;;;5032035;28;20189;-75
2022/09/24 04:44:17;;;;;;;4.72;0.95;;;16.70;99.90;;;;;;5041397;28;20202;-76
2022/09/24 04:46:48;;;;;;;2.67;0.90;;;16.70;99.90;;;;;;5033693;28;20198;-68
2022/09/24 04:49:20;;;;;;;7.13;1.20;;;16.70;99.90;;;;;;5033098;28;20194;-69
2022/09/24 04:51:51;;;;;;;2.42;0.90;;;16.70;99.90;;;;;;5033671;28;20210;-68
2022/09/24 04:54:22;;;;;;;3.75;1.00;;;16.80;99.90;;;;;;5036770;28;20183;-68
2022/09/24 04:56:52;;;;;;;4.65;0.90;;;16.80;99.90;;;;;;5036573;28;20183;-67
2022/09/24 04:59:24;;;;;;;2.85;1.20;;;17.00;99.90;;;;;;5035133;28;20642;-68
2022/09/24 05:01:54;;;;;;;2.35;0.75;;;17.10;99.90;;;;;;5035386;28;20639;-70
2022/09/24 05:04:27;;;;;;;3.20;1.23;;;17.20;99.90;;;;;;5031506;28;20255;-70
2022/09/24 05:06:58;;;;;;;2.35;0.93;;;17.30;99.90;;;;;;5034631;28;20190;-68
2022/09/24 05:09:29;;;;;;;2.13;0.98;;;17.40;99.90;;;;;;5035477;28;20294;-68
2022/09/24 05:12:00;;;;;;;3.08;0.80;;;17.40;99.90;;;;;;5035254;28;20207;-68
2022/09/24 05:14:30;;;;;;;3.50;1.25;;;17.50;99.90;;;;;;5043057;28;20186;-68
2022/09/24 05:17:01;;;;;;;2.38;1.10;;;17.50;99.90;;;;;;5035367;28;20193;-68
2022/09/24 05:19:34;;;;;;;1.00;0.82;;;17.50;99.90;;;;;;5035225;28;20216;-68
2022/09/24 05:22:04;;;;;;;2.67;0.90;;;17.40;99.90;;;;;;5035835;28;20202;-70
2022/09/24 05:24:35;;;;;;;2.75;1.10;;;17.50;99.90;;;;;;5035297;28;20182;-75
2022/09/24 05:27:10;;;;;;;3.88;1.02;;;17.40;99.90;;;;;;5035062;28;20242;-70
2022/09/24 05:29:42;;;;;;;3.45;1.00;;;17.40;99.90;;;;;;5035483;28;20225;-72
2022/09/24 05:32:16;;;;;;;3.33;0.90;;;17.40;99.90;;;;;;5033549;28;20230;-68
2022/09/24 05:34:49;;;;;;;4.88;0.98;;;17.40;99.90;;;;;;5035070;28;20197;-69
2022/09/24 05:37:20;;;;;;;7.18;1.30;;;17.40;99.90;;;;;;5035242;28;20701;-69
2022/09/24 05:39:51;;;;;;;1.55;0.98;;;17.50;99.90;;;;;;5024342;28;20194;-69
2022/09/24 05:42:22;;;;;;;2.95;0.90;;;17.50;99.90;;;;;;5031124;28;20217;-67
2022/09/24 05:44:52;;;;;;;3.53;1.20;;;17.50;99.90;;;;;;5032867;28;20197;-68
2022/09/24 05:47:23;;;;;;;5.85;1.20;;;17.40;99.90;;;;;;5031126;28;20292;-69
2022/09/24 05:49:56;;;;;;;2.20;1.02;;;17.40;99.90;;;;;;5034549;28;20191;-67
2022/09/24 05:52:26;;;;;;;2.28;1.10;;;17.30;99.90;;;;;;5034626;28;20218;-72
2022/09/24 05:54:57;;;;;;;1.77;1.15;;;17.20;99.90;;;;;;5033411;28;20187;-74
2022/09/24 05:57:28;;;;;;;4.15;1.55;;;17.10;99.90;;;;;;5033025;28;20194;-68
2022/09/24 06:00:00;;;;;;;4.28;1.00;;;17.00;99.90;;;;;;5034627;28;20193;-70
2022/09/24 06:02:32;;;;;;;2.58;1.15;;;16.80;99.90;;;;;;5034813;28;20189;-71
2022/09/24 06:05:08;;;;;;;2.75;1.20;;;16.80;99.90;;;;;;5034743;28;20194;-75
2022/09/24 06:07:41;;;;;;;5.45;1.30;;;16.70;99.90;;;;;;5033986;28;20288;-69
2022/09/24 06:10:15;;;;;;;2.80;1.30;;;16.70;99.90;;;;;;5034800;28;20191;-70
2022/09/24 06:12:47;;;;;;;5.55;1.50;;;16.70;99.90;;;;;;5034410;28;20214;-69
2022/09/24 06:15:20;;;;;;;5.07;1.55;;;16.90;99.90;;;;;;5034225;28;20198;-75
2022/09/24 06:17:51;;;;;;;3.88;1.23;;;17.10;99.90;;;;;;5034762;28;20249;-75
2022/09/24 06:20:23;;;;;;;4.90;1.33;;;17.20;99.90;;;;;;5033539;28;20198;-68
2022/09/24 06:22:58;;;;;;;4.03;1.40;;;17.30;99.90;;;;;;5032218;28;20200;-69
2022/09/24 06:25:29;;;;;;;3.78;1.40;;;17.30;99.90;;;;;;5033702;28;20220;-68
2022/09/24 06:28:01;;;;;;;5.15;1.20;;;17.40;99.90;;;;;;5033659;28;20183;-70
2022/09/24 06:30:34;;;;;;;5.18;1.30;;;17.50;99.90;;;;;;5036359;28;20629;-69
2022/09/24 06:33:06;;;;;;;4.53;1.20;;;17.50;99.90;;;;;;5041234;28;20232;-68
2022/09/24 06:35:40;;;;;;;5.22;1.20;;;17.50;99.90;;;;;;5043613;28;20190;-69
2022/09/24 06:38:12;;;;;;;4.47;1.42;;;17.40;99.90;;;;;;5033212;28;20600;-73
2022/09/24 06:40:45;;;;;;;7.63;1.63;;;17.40;99.90;;;;;;5033759;28;20195;-73
2022/09/24 06:43:16;;;;;;;3.40;1.30;;;17.40;99.90;;;;;;5034100;28;20253;-68
2022/09/24 06:45:48;;;;;;;3.97;1.40;;;17.30;99.90;;;;;;5036169;28;20232;-69
2022/09/24 06:48:18;;;;;;;6.07;1.58;;;17.30;99.90;;;;;;5037675;28;20186;-68
2022/09/24 06:50:51;;;;;;;3.97;1.20;;;17.20;99.90;;;;;;5034832;28;20535;-69
2022/09/24 06:53:22;;;;;;;5.75;1.50;;;17.10;99.90;;;;;;5031297;28;20218;-73
2022/09/24 06:55:53;;;;;;;2.03;1.20;;;17.00;99.90;;;;;;5030264;28;20653;-71
2022/09/24 06:58:23;;;;;;;3.67;1.40;;;17.00;99.90;;;;;;5035662;28;20610;-72
2022/09/24 07:00:57;;;;;;;4.10;1.42;;;17.00;99.90;;;;;;5033231;28;20191;-69
2022/09/24 07:03:28;;;;;;;4.30;1.40;;;16.90;99.90;;;;;;5029629;28;20677;-80
2022/09/24 07:06:03;;;;;;;3.90;1.40;;;16.70;99.90;;;;;;5042646;28;20564;-69
2022/09/24 07:08:35;;;;;;;3.72;1.50;;;16.60;99.90;;;;;;5032112;28;20214;-67
2022/09/24 07:11:05;;;;;;;4.82;1.55;;;16.40;99.90;;;;;;5033274;28;20646;-72
2022/09/24 07:13:36;;;;;;;7.75;2.05;;;16.20;99.90;;;;;;5033329;28;20211;-67
2022/09/24 07:16:07;;;;;;;4.00;1.77;;;16.20;99.90;;;;;;5033015;28;20205;-67
2022/09/24 07:18:38;;;;;;;3.22;1.88;;;16.20;99.90;;;;;;5033119;28;20190;-67
2022/09/24 07:21:11;;;;;;;4.95;1.77;;;16.20;99.90;;;;;;5032774;28;20200;-68
2022/09/24 07:23:41;;;;;;;5.25;1.90;;;16.10;99.90;;;;;;5032800;28;20190;-67
2022/09/24 07:26:12;;;;;;;6.65;2.00;;;16.00;99.90;;;;;;5031991;28;20555;-69
2022/09/24 07:28:43;;;;;;;7.30;2.03;;;16.00;99.90;;;;;;5033331;28;20190;-73
2022/09/24 07:31:13;;;;;;;5.10;2.20;;;16.00;99.90;;;;;;5033000;28;20197;-75
2022/09/24 07:33:44;;;;;;;4.55;1.90;;;16.00;99.90;;;;;;5033332;28;20222;-76
2022/09/24 07:36:17;;;;;;;3.97;2.03;;;16.00;99.90;;;;;;5032680;28;20234;-77
2022/09/24 07:38:48;;;;;;;4.63;1.95;;;16.00;99.90;;;;;;5033746;28;20190;-75
2022/09/24 07:41:19;;;;;;;10.65;5.20;;;16.00;99.90;;;;;;5030323;28;20662;-76
2022/09/24 07:43:49;;;;;;;11.00;5.57;;;16.00;99.90;;;;;;5031898;28;20867;-76
2022/09/24 07:46:23;;;;;;;6.63;3.38;;;16.00;99.90;;;;;;5032031;28;20649;-68
2022/09/24 07:48:56;;;;;;;4.65;2.53;;;16.00;99.90;;;;;;5033356;28;20277;-70
2022/09/24 07:51:30;;;;;;;7.70;3.88;;;16.00;99.90;;;;;;5033135;28;20635;-70
2022/09/24 07:54:01;;;;;;;7.55;3.75;;;16.00;99.90;;;;;;5039187;28;20217;-74
2022/09/24 07:56:32;;;;;;;9.48;2.65;;;16.00;99.90;;;;;;5053362;28;20189;-78
2022/09/24 07:59:05;;;;;;;6.97;2.60;;;15.90;99.90;;;;;;5053214;28;20190;-77
2022/09/24 08:01:36;;;;;;;7.30;2.70;;;15.90;99.90;;;;;;5052247;28;20190;-74
2022/09/24 08:04:07;;;;;;;4.75;2.20;;;15.90;99.90;;;;;;5033302;28;20196;-71
2022/09/24 08:06:40;;;;;;;5.47;2.42;;;15.80;99.90;;;;;;5033242;28;20190;-71
2022/09/24 08:09:10;;;;;;;5.45;2.47;;;15.80;99.90;;;;;;5033234;28;20194;-75
2022/09/24 08:11:41;;;;;;;5.32;2.10;;;15.80;99.90;;;;;;5033690;28;20205;-72
2022/09/24 08:14:12;;;;;;;5.35;2.10;;;15.80;99.90;;;;;;5032979;28;20575;-73
2022/09/24 08:16:43;;;;;;;3.78;2.05;;;15.70;99.90;;;;;;5033055;28;20293;-76
2022/09/24 08:19:15;;;;;;;5.22;2.10;;;15.70;99.90;;;;;;5036806;28;20190;-77
2022/09/24 08:21:49;;;;;;;4.63;2.20;;;15.70;99.90;;;;;;5037152;28;20244;-73
2022/09/24 08:24:19;;;;;;;5.72;2.35;;;15.70;99.90;;;;;;5017507;28;20202;-77
2022/09/24 08:26:50;;;;;;;7.53;2.35;;;15.70;99.90;;;;;;5033438;28;20198;-68
2022/09/24 08:29:21;;;;;;;6.07;2.70;;;15.70;99.90;;;;;;5054177;28;20201;-73
2022/09/24 08:31:51;;;;;;;6.32;2.60;;;15.70;99.90;;;;;;5050397;28;20697;-68
2022/09/24 08:34:22;;;;;;;7.18;3.17;;;15.70;99.90;;;;;;5036538;28;20220;-72
2022/09/24 08:36:55;;;;;;;7.35;3.17;;;15.70;99.90;;;;;;5016981;28;20230;-72
2022/09/24 08:39:26;;;;;;;7.95;2.97;;;15.70;99.90;;;;;;5035175;28;20194;-68
2022/09/24 08:41:59;;;;;;;6.25;3.17;;;15.70;99.90;;;;;;5036793;28;20194;-68
2022/09/24 08:47:28;;;;;;;5.97;3.50;;;15.70;99.90;;;;;;5036819;28;20213;-68
2022/09/24 08:50:16;;;;;;;8.80;3.20;;;15.70;99.90;;;;;;5036324;28;20190;-68
2022/09/24 08:53:07;;;;;;;7.05;3.05;;;15.70;99.90;;;;;;5031099;28;20194;-72
2022/09/24 08:55:41;;;;;;;6.00;2.85;;;15.70;99.90;;;;;;5036640;28;20240;-68
2022/09/24 08:58:30;;;;;;;5.78;2.97;;;15.70;99.90;;;;;;5036554;28;20652;-67
2022/09/24 09:01:08;;;;;;;9.55;3.40;;;15.60;99.90;;;;;;5036496;28;20212;-68
2022/09/24 09:03:44;;;;;;;9.07;3.70;;;15.70;99.90;;;;;;5036198;28;20198;-71
2022/09/24 09:06:26;;;;;;;7.75;3.40;;;15.60;99.90;;;;;;5036093;28;20190;-68
2022/09/24 09:09:05;;;;;;;6.72;3.45;;;15.70;99.90;;;;;;5036295;28;20197;-69
2022/09/24 09:11:37;;;;;;;8.20;3.38;;;15.70;99.90;;;;;;5036386;28;20186;-72
2022/09/24 09:14:13;;;;;;;7.90;3.72;;;15.60;99.90;;;;;;5036102;28;20583;-75
2022/09/24 09:16:50;;;;;;;6.43;3.20;;;15.60;99.90;;;;;;5036001;28;20193;-70
2022/09/24 09:19:25;;;;;;;7.28;3.22;;;15.60;99.90;;;;;;5036146;28;20194;-69
2022/09/24 09:22:00;;;;;;;6.60;3.25;;;15.60;99.90;;;;;;5036085;28;20204;-68
2022/09/24 09:24:43;;;;;;;6.55;3.25;;;15.60;99.90;;;;;;5036048;28;20194;-68
2022/09/24 09:27:15;;;;;;;7.32;2.92;;;15.50;99.90;;;;;;5035866;28;20200;-70
2022/09/24 09:29:49;;;;;;;4.72;3.00;;;15.50;99.90;;;;;;5034712;28;20240;-68
2022/09/24 09:32:41;;;;;;;9.23;3.10;;;15.50;99.90;;;;;;5035253;28;20705;-72
2022/09/24 09:35:20;;;;;;;7.88;3.10;;;15.50;99.90;;;;;;5035680;28;20273;-71
2022/09/24 09:37:57;;;;;;;6.32;3.10;;;15.50;99.90;;;;;;5035014;28;20225;-72
2022/09/24 09:40:40;;;;;;;6.72;3.13;;;15.50;99.90;;;;;;5035683;28;20558;-70
2022/09/24 09:43:14;;;;;;;5.95;3.15;;;15.50;99.90;;;;;;5035742;28;20204;-68
2022/09/24 09:45:56;;;;;;;5.60;3.08;;;15.40;99.90;;;;;;5035364;28;20195;-73
2022/09/24 09:48:31;;;;;;;7.82;3.53;;;15.40;99.90;;;;;;5035551;28;20566;-69
2022/09/24 09:51:06;;;;;;;9.05;4.13;;;15.40;99.90;;;;;;5035190;28;20186;-70
2022/09/24 09:53:36;;;;;;;8.75;4.10;;;15.40;99.90;;;;;;5035240;28;20232;-69
2022/09/24 09:56:10;;;;;;;8.95;4.07;;;15.40;99.90;;;;;;5035443;28;20194;-71
2022/09/24 09:58:46;;;;;;;9.05;4.72;;;15.30;99.90;;;;;;5035413;28;20191;-68
2022/09/24 10:01:19;;;;;;;8.85;4.80;;;15.30;99.90;;;;;;5035186;28;20273;-69
2022/09/24 10:03:51;;;;;;;10.65;4.97;;;15.30;99.90;;;;;;5067241;28;20256;-70
2022/09/24 10:06:27;;;;;;;12.82;5.88;;;15.30;99.90;;;;;;5034929;28;20225;-68
2022/09/24 10:09:10;;;;;;;8.93;5.15;;;15.30;99.90;;;;;;5035004;28;20183;-71
2022/09/24 10:11:43;;;;;;;10.60;5.15;;;15.20;99.90;;;;;;5032398;28;20233;-70
2022/09/24 10:14:17;;;;;;;9.95;4.90;;;15.20;99.90;;;;;;5035072;28;20222;-69
2022/09/24 10:16:51;;;;;;;13.02;4.82;;;15.20;99.90;;;;;;5034887;28;20190;-70
2022/09/24 10:19:26;;;;;;;9.85;4.97;;;15.20;99.90;;;;;;5034987;28;20620;-74
2022/09/24 10:21:58;;;;;;;10.52;4.72;;;15.20;99.90;;;;;;5035407;28;20280;-70
2022/09/24 10:24:30;;;;;;;8.57;4.28;;;15.10;99.90;;;;;;5035253;28;20256;-71
2022/09/24 10:27:11;;;;;;;10.35;4.43;;;15.10;99.90;;;;;;5034842;28;20195;-71
2022/09/24 10:32:30;;;;;;;14.35;6.65;;;15.10;99.90;;;;;;5034402;28;20229;-71
2022/09/24 10:35:04;;;;;;;10.93;5.72;;;15.10;99.90;;;;;;5034587;28;20229;-68
2022/09/24 10:37:36;;;;;;;12.25;6.00;;;15.00;99.90;;;;;;5034084;28;20693;-68
2022/09/24 10:40:16;;;;;;;11.55;5.63;;;15.00;99.90;;;;;;5034040;28;20643;-69
2022/09/24 10:42:58;;;;;;;12.98;5.80;;;15.00;99.90;;;;;;5034568;28;20191;-76
2022/09/24 10:45:41;;;;;;;12.68;5.68;;;15.00;99.90;;;;;;5034315;28;20194;-70
2022/09/24 10:48:18;;;;;;;11.07;5.63;;;14.90;99.90;;;;;;5034436;28;20244;-69
2022/09/24 10:50:56;;;;;;;10.32;5.80;;;15.00;99.90;;;;;;5033311;28;20194;-72
2022/09/24 10:53:38;;;;;;;11.30;5.65;;;14.90;99.90;;;;;;5033889;28;20205;-68
2022/09/24 10:56:22;;;;;;;10.60;5.55;;;14.90;99.90;;;;;;5019303;28;20198;-69
2022/09/24 10:59:11;;;;;;;12.00;5.65;;;14.90;99.90;;;;;;5025332;28;20190;-78
2022/09/24 11:01:50;;;;;;;12.75;5.53;;;14.80;99.90;;;;;;5036064;28;20357;-68
2022/09/24 11:04:44;;;;;;;12.52;5.63;;;14.80;99.90;;;;;;5044103;28;20204;-75
2022/09/24 11:07:47;;;;;;;9.00;5.63;;;14.90;99.90;;;;;;5051255;28;20196;-68
2022/09/24 11:10:30;;;;;;;12.88;6.05;;;14.80;99.90;;;;;;5031959;28;20205;-68
2022/09/24 11:13:12;;;;;;;13.38;6.13;;;14.70;99.90;;;;;;5034486;28;20216;-71
2022/09/24 11:16:14;;;;;;;10.65;6.00;;;14.80;99.90;;;;;;5053823;28;20208;-70
2022/09/24 11:18:55;;;;;;;12.07;6.63;;;14.80;99.90;;;;;;5036403;28;20607;-76
2022/09/24 11:21:37;;;;;;;11.35;7.07;;;14.80;99.90;;;;;;5031830;28;20205;-77
2022/09/24 11:24:29;;;;;;;10.13;6.40;;;14.70;99.90;;;;;;5031533;28;20198;-77
2022/09/24 11:27:14;;;;;;;12.35;6.90;;;14.70;99.90;;;;;;5018304;28;20202;-77
2022/09/24 11:30:04;;;;;;;11.93;6.50;;;14.70;99.90;;;;;;5031803;28;20198;-76
2022/09/24 11:32:45;;;;;;;11.77;6.22;;;14.70;99.90;;;;;;5031424;28;20222;-69
2022/09/24 11:35:34;;;;;;;10.63;6.22;;;14.70;99.90;;;;;;5032354;28;20218;-72
2022/09/24 11:38:10;;;;;;;9.90;5.38;;;14.60;99.90;;;;;;5027252;28;20276;-69
2022/09/24 11:41:01;;;;;;;9.10;5.53;;;14.60;99.90;;;;;;5034968;28;20189;-71
2022/09/24 11:43:59;;;;;;;9.50;5.38;;;14.60;99.90;;;;;;5032678;28;20546;-71
2022/09/24 11:46:46;;;;;;;9.15;5.32;;;14.50;99.90;;;;;;5024197;28;20234;-77
2022/09/24 11:49:36;;;;;;;9.18;4.93;;;14.50;99.90;;;;;;5033641;28;20515;-76
2022/09/24 11:52:11;;;;;;;7.75;4.70;;;14.50;99.90;;;;;;5034013;28;20206;-76
2022/09/24 11:54:48;;;;;;;8.68;4.60;;;14.50;99.90;;;;;;5039050;28;20214;-75
2022/09/24 11:57:25;;;;;;;11.10;4.65;;;14.50;99.90;;;;;;5033769;28;20204;-75
2022/09/24 12:00:01;;;;;;;8.52;4.55;;;14.50;99.90;;;;;;5035308;28;20195;-69
2022/09/24 12:02:36;;;;;;;8.75;4.22;;;14.40;99.90;;;;;;5036382;28;20198;-76
2022/09/24 12:05:14;;;;;;;9.88;4.50;;;14.40;99.90;;;;;;5028408;28;20200;-77
2022/09/24 12:07:51;;;;;;;6.97;4.05;;;14.40;99.90;;;;;;5031207;28;20247;-75
2022/09/24 12:10:38;;;;;;;16.83;4.68;;;14.40;99.90;;;;;;5030410;28;20206;-76
2022/09/24 12:13:17;;;;;;;7.65;3.85;;;14.40;99.90;;;;;;5029554;28;20197;-69
2022/09/24 12:15:53;;;;;;;6.85;4.28;;;14.30;99.90;;;;;;5028003;28;20221;-74
2022/09/24 12:18:27;;;;;;;7.60;4.18;;;14.40;99.90;;;;;;5034358;28;20186;-73
2022/09/24 12:21:05;;;;;;;10.07;4.22;;;14.30;99.90;;;;;;5052912;28;20617;-75
2022/09/24 12:23:40;;;;;;;7.78;3.92;;;14.30;99.90;;;;;;5031921;28;20233;-73
2022/09/24 12:26:15;;;;;;;8.68;4.90;;;14.30;99.90;;;;;;5030523;28;20201;-77
2022/09/24 12:34:51;;;;;;;6.57;4.47;;;14.30;99.90;;;;;;5024899;28;20801;-75
2022/09/24 12:37:30;;;;;;;8.80;4.68;;;14.20;99.90;;;;;;5042307;28;20644;-76
2022/09/24 12:40:08;;;;;;;7.68;4.75;;;14.20;99.90;;;;;;5029767;28;20190;-69
2022/09/24 12:42:45;;;;;;;7.90;4.60;;;14.20;99.90;;;;;;5030669;28;20631;-71
2022/09/24 12:45:18;;;;;;;7.80;4.60;;;14.30;99.90;;;;;;5034684;28;20575;-70
2022/09/24 12:47:52;;;;;;;12.32;4.90;;;14.20;99.90;;;;;;5042485;28;20191;-69
2022/09/24 12:50:27;;;;;;;9.20;4.88;;;14.20;99.90;;;;;;5033544;28;20202;-70
2022/09/24 12:53:00;;;;;;;6.95;4.53;;;14.20;99.90;;;;;;5032817;28;20198;-74
2022/09/24 12:55:32;;;;;;;8.57;5.15;;;14.20;99.90;;;;;;5031781;28;20218;-70
2022/09/24 12:58:06;;;;;;;10.00;5.72;;;14.30;99.90;;;;;;5031326;28;20209;-70
2022/09/24 13:00:40;;;;;;;8.07;4.75;;;14.20;99.90;;;;;;5030713;28;20194;-69
2022/09/24 13:03:34;;;;;;;9.27;5.57;;;14.30;99.90;;;;;;5032023;28;20194;-71
2022/09/24 13:06:19;;;;;;;7.22;4.75;;;14.20;99.90;;;;;;5031296;28;20677;-72
2022/09/24 13:08:51;;;;;;;6.70;4.53;;;14.20;99.90;;;;;;5033796;28;20225;-69
2022/09/24 13:11:35;;;;;;;8.32;4.55;;;14.20;99.90;;;;;;5032727;28;20206;-69
2022/09/24 13:14:22;;;;;;;8.95;5.18;;;14.20;99.90;;;;;;5035436;28;20249;-68
2022/09/24 13:16:57;;;;;;;9.10;5.25;;;14.20;99.90;;;;;;5026368;28;20202;-68
2022/09/24 13:19:36;;;;;;;10.90;5.10;;;14.20;99.90;;;;;;5035865;28;20667;-71
2022/09/24 13:22:07;;;;;;;9.52;5.15;;;14.20;99.90;;;;;;5034227;28;20573;-69
2022/09/24 13:24:52;;;;;;;11.63;5.47;;;14.30;99.90;;;;;;5029743;28;20198;-74
2022/09/24 13:27:37;;;;;;;9.00;5.40;;;14.30;99.90;;;;;;5030767;28;20225;-69
2022/09/24 13:30:16;;;;;;;7.47;4.85;;;14.30;99.90;;;;;;5024397;28;20607;-76
2022/09/24 13:32:52;;;;;;;8.23;5.40;;;14.30;99.90;;;;;;5032057;28;20214;-72
2022/09/24 13:35:27;;;;;;;9.05;5.47;;;14.30;99.90;;;;;;5034131;28;20807;-73
2022/09/24 13:38:07;;;;;;;9.25;5.95;;;14.20;99.90;;;;;;5039658;28;20235;-69